Terminal Aerodrome Forecast
Issued by NWS

Home | Current Version | Previous Version | Text Only | Print | Product List | Glossary On
Versions: 1 2 3 4 5 6 7 8 9 10 11 12 13 14
000
FTUS41 KLWX 231700 RRA
TAFMTN
TAF
KMTN 231745Z 2318/2418 30017G31KT P6SM BKN050
     FM232000 31017G28KT P6SM SCT050
     FM232300 30015KT P6SM FEW250
     FM241500 31012G20KT P6SM FEW200=

USA.gov is the U.S. government's official web portal to all federal, state and local government web resources and services.